Time;durP1;ratioP1;P1;durP2;ratioP2;P2;SDS_P1;SDS_P2;PMS_P1;PMS_P2;Temp;Humidity;BMP_temperature;BMP_pressure;BME280_temperature;BME280_humidity;BME280_pressure;Samples;Min_cycle;Max_cycle;Signal;HPM_P1;HPM_P2
2022/11/17 00:00:38;;;;;;;1.70;0.80;;;3.70;99.90;;;;;;6389826;27;20306;-67
2022/11/17 00:03:42;;;;;;;0.90;0.90;;;3.70;99.90;;;;;;6389566;27;20286;-67
2022/11/17 00:06:47;;;;;;;0.87;0.87;;;3.70;99.90;;;;;;6390522;27;20314;-68
2022/11/17 00:09:52;;;;;;;0.90;0.90;;;3.60;99.90;;;;;;6389965;27;20286;-67
2022/11/17 00:16:22;;;;;;;0.90;0.90;;;3.50;99.90;;;;;;6389684;27;20271;-66
2022/11/17 00:22:49;;;;;;;0.70;0.70;;;3.50;99.90;;;;;;6389561;27;20303;-66
2022/11/17 00:25:54;;;;;;;0.90;0.90;;;3.50;99.90;;;;;;6390148;27;20365;-68
2022/11/17 00:29:03;;;;;;;0.70;0.70;;;3.50;99.90;;;;;;6370811;27;20585;-66
2022/11/17 00:35:34;;;;;;;0.70;0.70;;;3.50;99.90;;;;;;6389640;27;20273;-67
2022/11/17 00:38:39;;;;;;;0.70;0.70;;;3.60;99.90;;;;;;6388959;27;20294;-67
2022/11/17 00:41:44;;;;;;;0.80;0.80;;;3.50;99.90;;;;;;6388648;27;20265;-67
2022/11/17 00:44:51;;;;;;;0.70;0.70;;;3.50;99.90;;;;;;6389202;27;20294;-67
2022/11/17 00:47:55;;;;;;;0.70;0.70;;;3.60;99.90;;;;;;6389055;27;20305;-66
2022/11/17 00:51:04;;;;;;;0.90;0.90;;;3.50;99.90;;;;;;6389282;27;20267;-66
2022/11/17 00:54:12;;;;;;;0.80;0.80;;;3.60;99.90;;;;;;6388553;27;20295;-66
2022/11/17 00:57:17;;;;;;;0.70;0.70;;;3.70;99.90;;;;;;6388704;27;20303;-66
2022/11/17 01:00:23;;;;;;;0.80;0.80;;;3.70;99.90;;;;;;6388762;27;20300;-66
2022/11/17 01:03:28;;;;;;;0.80;0.80;;;3.60;99.90;;;;;;6388614;27;20289;-67
2022/11/17 01:06:36;;;;;;;0.77;0.77;;;3.60;99.90;;;;;;6388867;27;20293;-66
2022/11/17 01:09:41;;;;;;;0.80;0.80;;;3.60;99.90;;;;;;6388377;27;20301;-66
2022/11/17 01:12:46;;;;;;;0.90;0.90;;;3.60;99.90;;;;;;6388091;27;20294;-67
2022/11/17 01:15:52;;;;;;;0.90;0.90;;;3.60;99.90;;;;;;6388351;27;20269;-66
2022/11/17 01:19:00;;;;;;;0.80;0.80;;;3.60;99.90;;;;;;6387942;27;20292;-66
2022/11/17 01:22:05;;;;;;;0.90;0.90;;;3.70;99.90;;;;;;6387874;27;20266;-66
2022/11/17 01:25:11;;;;;;;0.97;0.97;;;3.70;99.90;;;;;;6388436;27;20269;-66
2022/11/17 01:28:17;;;;;;;0.97;0.97;;;3.60;99.90;;;;;;6387744;27;20301;-66
2022/11/17 01:31:24;;;;;;;2.40;1.13;;;3.60;99.90;;;;;;6387588;27;20558;-66
2022/11/17 01:34:30;;;;;;;1.00;1.00;;;3.70;99.90;;;;;;6387514;27;20293;-67
2022/11/17 01:37:34;;;;;;;1.00;1.00;;;3.70;99.90;;;;;;6387081;27;20291;-66
2022/11/17 01:40:39;;;;;;;1.10;1.10;;;3.70;99.90;;;;;;6388245;27;20267;-66
2022/11/17 01:43:46;;;;;;;1.00;1.00;;;3.70;99.90;;;;;;6387221;27;20305;-66
2022/11/17 01:46:53;;;;;;;1.00;1.00;;;3.60;99.90;;;;;;6387423;27;20290;-67
2022/11/17 01:50:10;;;;;;;0.90;0.90;;;3.60;99.90;;;;;;6387312;27;20268;-66
2022/11/17 01:53:18;;;;;;;1.00;1.00;;;3.60;99.90;;;;;;6386676;27;20546;-67
2022/11/17 01:56:27;;;;;;;0.90;0.90;;;3.70;99.90;;;;;;6387259;27;20290;-66
2022/11/17 01:59:35;;;;;;;0.90;0.90;;;3.70;99.90;;;;;;6387137;27;20591;-66
2022/11/17 02:02:42;;;;;;;0.93;0.93;;;3.70;99.90;;;;;;6387405;27;20288;-68
2022/11/17 02:05:53;;;;;;;0.87;0.87;;;3.70;99.90;;;;;;6387211;27;20287;-67
2022/11/17 02:08:58;;;;;;;0.80;0.80;;;3.60;99.90;;;;;;6386828;27;20292;-67
2022/11/17 02:12:04;;;;;;;0.90;0.90;;;3.50;99.90;;;;;;6386292;27;20266;-67
2022/11/17 02:15:10;;;;;;;0.90;0.90;;;3.50;99.90;;;;;;6387203;27;20416;-66
2022/11/17 02:18:17;;;;;;;0.83;0.83;;;3.50;99.90;;;;;;6386279;27;20313;-68
2022/11/17 02:21:57;;;;;;;0.80;0.80;;;3.50;99.90;;;;;;6386909;27;20261;-66
2022/11/17 02:25:43;;;;;;;0.90;0.90;;;3.40;99.90;;;;;;6385625;27;20272;-67
2022/11/17 02:28:52;;;;;;;0.90;0.90;;;3.40;99.90;;;;;;6386214;27;20303;-66
2022/11/17 02:32:02;;;;;;;0.90;0.90;;;3.40;99.90;;;;;;6386342;27;20267;-67
2022/11/17 02:35:15;;;;;;;0.90;0.90;;;3.30;99.90;;;;;;6385425;27;20549;-66
2022/11/17 02:38:29;;;;;;;0.97;0.97;;;3.20;99.90;;;;;;6386244;27;20308;-66
2022/11/17 02:41:41;;;;;;;1.00;1.00;;;3.30;99.90;;;;;;6386161;27;20273;-66
2022/11/17 02:44:52;;;;;;;1.10;1.10;;;3.30;99.90;;;;;;6386311;27;20295;-67
2022/11/17 02:47:59;;;;;;;1.00;1.00;;;3.30;99.90;;;;;;6386276;27;20300;-67
2022/11/17 02:51:05;;;;;;;1.57;1.00;;;3.20;99.90;;;;;;6368422;27;20594;-66
2022/11/17 02:54:12;;;;;;;1.10;1.10;;;3.30;99.90;;;;;;6386159;27;20607;-66
2022/11/17 02:57:31;;;;;;;1.00;1.00;;;3.40;99.90;;;;;;6385685;27;20301;-67
2022/11/17 03:00:45;;;;;;;1.10;1.10;;;3.30;99.90;;;;;;6385983;27;20325;-67
2022/11/17 03:04:08;;;;;;;1.00;1.00;;;3.40;99.90;;;;;;6386048;28;20296;-66
2022/11/17 03:07:33;;;;;;;1.20;1.20;;;3.20;99.90;;;;;;6394273;27;20291;-66
2022/11/17 03:10:51;;;;;;;1.00;1.00;;;3.30;99.90;;;;;;6394954;27;20263;-68
2022/11/17 03:14:02;;;;;;;1.17;1.17;;;3.30;99.90;;;;;;6393756;27;20307;-65
2022/11/17 03:17:14;;;;;;;1.10;1.10;;;3.20;99.90;;;;;;6393965;27;20453;-66
2022/11/17 03:20:22;;;;;;;1.23;1.20;;;3.20;99.90;;;;;;6394245;27;20261;-66
2022/11/17 03:23:33;;;;;;;1.00;1.00;;;3.20;99.90;;;;;;6393594;27;20489;-67
2022/11/17 03:26:41;;;;;;;1.20;1.20;;;3.20;99.90;;;;;;6394796;27;20267;-66
2022/11/17 03:29:52;;;;;;;1.30;1.30;;;3.20;99.90;;;;;;6393938;27;20295;-66
2022/11/17 03:33:05;;;;;;;1.10;1.10;;;3.20;99.90;;;;;;6394057;27;20310;-67
2022/11/17 03:36:13;;;;;;;1.20;1.20;;;3.20;99.90;;;;;;6394731;27;20267;-67
2022/11/17 03:39:27;;;;;;;1.20;1.20;;;3.30;99.90;;;;;;6394136;27;20298;-66
2022/11/17 03:42:35;;;;;;;1.30;1.30;;;3.30;99.90;;;;;;6393899;27;20285;-66
2022/11/17 03:45:42;;;;;;;2.13;1.30;;;3.20;99.90;;;;;;6394112;27;20275;-66
2022/11/17 03:48:53;;;;;;;1.30;1.30;;;3.20;99.90;;;;;;6393452;27;20297;-67
2022/11/17 03:51:58;;;;;;;1.20;1.20;;;3.30;99.90;;;;;;6393625;27;20272;-68
2022/11/17 03:55:03;;;;;;;1.00;1.00;;;3.30;99.90;;;;;;6394406;27;20279;-67
2022/11/17 03:58:12;;;;;;;1.40;1.40;;;3.20;99.90;;;;;;6393659;27;20289;-67
2022/11/17 04:01:20;;;;;;;1.33;1.33;;;3.20;99.90;;;;;;6393877;27;20295;-67
2022/11/17 04:05:04;;;;;;;1.30;1.30;;;3.10;99.90;;;;;;6392737;27;20299;-66
2022/11/17 04:07:51;;;;;;;1.50;1.50;;;3.10;99.90;;;;;;6393820;27;20292;-67
2022/11/17 04:17:41;;;;;;;1.40;1.40;;;3.20;99.90;;;;;;6390714;27;20280;-66
2022/11/17 04:20:50;;;;;;;1.20;1.20;;;3.20;99.90;;;;;;6389300;27;20295;-66
2022/11/17 04:23:56;;;;;;;1.27;1.27;;;3.20;99.90;;;;;;6389367;27;20297;-67
2022/11/17 04:30:20;;;;;;;1.47;1.47;;;3.20;99.90;;;;;;6334060;27;20293;-67
2022/11/17 04:33:25;;;;;;;1.33;1.33;;;3.30;99.90;;;;;;6389182;27;20289;-67
2022/11/17 04:36:32;;;;;;;1.30;1.30;;;3.30;99.90;;;;;;6389572;27;20268;-68
2022/11/17 04:39:38;;;;;;;1.20;1.20;;;3.30;99.90;;;;;;6389338;27;20394;-67
2022/11/17 04:42:42;;;;;;;1.20;1.20;;;3.20;99.90;;;;;;6389570;27;20261;-67
2022/11/17 04:45:47;;;;;;;1.37;1.37;;;3.20;99.90;;;;;;6389145;27;20293;-67
2022/11/17 04:48:53;;;;;;;1.50;1.50;;;3.20;99.90;;;;;;6388840;27;20296;-67
2022/11/17 04:51:59;;;;;;;1.20;1.20;;;3.20;99.90;;;;;;6389156;27;20277;-67
2022/11/17 04:55:05;;;;;;;1.37;1.37;;;3.30;99.90;;;;;;6388878;27;20304;-67
2022/11/17 04:58:11;;;;;;;1.33;1.20;;;3.20;99.90;;;;;;6388833;27;20273;-67
2022/11/17 05:01:17;;;;;;;1.27;1.27;;;3.20;99.90;;;;;;6388586;27;20308;-67
2022/11/17 05:07:46;;;;;;;1.40;1.40;;;3.20;99.90;;;;;;6388922;27;20272;-67
2022/11/17 05:14:15;;;;;;;1.10;1.10;;;3.30;99.90;;;;;;6388107;27;20303;-67
2022/11/17 05:17:19;;;;;;;1.27;1.27;;;3.20;99.90;;;;;;6388494;27;20264;-67
2022/11/17 05:20:23;;;;;;;1.50;1.40;;;3.30;99.90;;;;;;6388304;27;20302;-67
2022/11/17 05:26:52;;;;;;;2.43;1.20;;;3.20;99.90;;;;;;6388010;27;20455;-67
2022/11/17 05:29:57;;;;;;;2.20;1.10;;;3.20;99.90;;;;;;6386783;27;20304;-67
2022/11/17 05:33:02;;;;;;;1.20;1.10;;;3.20;99.90;;;;;;6387358;27;20263;-68
2022/11/17 05:36:10;;;;;;;1.23;1.23;;;3.10;99.90;;;;;;6370571;27;20267;-66
2022/11/17 05:39:16;;;;;;;1.23;1.23;;;3.10;99.90;;;;;;6387425;27;20298;-67
2022/11/17 05:42:21;;;;;;;1.20;1.20;;;3.00;99.90;;;;;;6388204;27;20264;-67
2022/11/17 05:45:26;;;;;;;1.20;1.20;;;2.90;99.90;;;;;;6387407;27;20291;-66
2022/11/17 05:48:32;;;;;;;1.20;1.20;;;2.90;99.90;;;;;;6387183;27;20561;-67
2022/11/17 05:51:37;;;;;;;1.30;1.30;;;2.90;99.90;;;;;;6388372;27;20264;-67
2022/11/17 05:54:43;;;;;;;1.67;1.60;;;2.90;99.90;;;;;;6387578;27;20304;-68
2022/11/17 05:57:48;;;;;;;1.57;1.57;;;2.90;99.90;;;;;;6387899;27;20279;-68
2022/11/17 06:00:54;;;;;;;1.30;1.30;;;2.80;99.90;;;;;;6386984;27;20303;-67
2022/11/17 06:04:03;;;;;;;1.30;1.30;;;2.90;99.90;;;;;;6387153;27;20295;-67
2022/11/17 06:07:09;;;;;;;1.63;1.53;;;2.90;99.90;;;;;;6387221;27;20272;-67
2022/11/17 06:10:15;;;;;;;1.20;1.20;;;3.00;99.90;;;;;;6386750;27;20294;-67
2022/11/17 06:13:24;;;;;;;1.40;1.40;;;3.00;99.90;;;;;;6386750;27;20604;-67
2022/11/17 06:16:33;;;;;;;1.50;1.40;;;3.00;99.90;;;;;;6387238;27;20268;-67
2022/11/17 06:19:42;;;;;;;1.33;1.30;;;3.00;99.90;;;;;;6386868;27;20625;-67
2022/11/17 06:22:47;;;;;;;1.37;1.37;;;3.00;99.90;;;;;;6387215;27;20261;-67
2022/11/17 06:25:53;;;;;;;1.40;1.37;;;3.00;99.90;;;;;;6386913;27;20357;-66
2022/11/17 06:28:58;;;;;;;1.30;1.30;;;3.10;99.90;;;;;;6386338;27;20607;-66
2022/11/17 06:32:04;;;;;;;1.40;1.30;;;3.10;99.90;;;;;;6386829;27;20275;-66
2022/11/17 06:35:10;;;;;;;1.57;1.47;;;3.10;99.90;;;;;;6386062;27;20299;-66
2022/11/17 06:38:15;;;;;;;2.63;1.43;;;3.10;99.90;;;;;;6386476;27;20572;-66
2022/11/17 06:41:21;;;;;;;1.20;1.20;;;3.00;99.90;;;;;;6386201;27;20267;-67
2022/11/17 06:44:26;;;;;;;1.30;1.30;;;3.10;99.90;;;;;;6386559;27;20297;-66
2022/11/17 06:47:30;;;;;;;1.20;1.20;;;3.10;99.90;;;;;;6386964;27;20268;-67
2022/11/17 06:50:35;;;;;;;1.30;1.30;;;3.00;99.90;;;;;;6386021;27;20299;-67
2022/11/17 06:53:40;;;;;;;1.27;1.27;;;3.10;99.90;;;;;;6385762;27;20292;-67
2022/11/17 06:56:50;;;;;;;2.43;1.30;;;3.00;99.90;;;;;;6386273;27;20267;-67
2022/11/17 06:59:55;;;;;;;1.20;1.20;;;3.00;99.90;;;;;;6385747;27;20303;-66
2022/11/17 07:03:00;;;;;;;1.50;1.50;;;3.00;99.90;;;;;;6386228;27;20260;-66
2022/11/17 07:06:07;;;;;;;1.43;1.43;;;3.10;99.90;;;;;;6386576;28;20277;-67
2022/11/17 07:09:12;;;;;;;1.43;1.33;;;3.10;99.90;;;;;;6385368;28;20295;-66
2022/11/17 07:12:18;;;;;;;1.77;1.40;;;3.20;99.90;;;;;;6385975;28;20263;-66
2022/11/17 07:15:24;;;;;;;1.10;1.10;;;3.10;99.90;;;;;;6385730;28;20360;-67
2022/11/17 07:18:28;;;;;;;1.07;1.07;;;3.20;99.90;;;;;;6385887;28;20296;-67
2022/11/17 07:21:34;;;;;;;1.30;1.30;;;3.10;99.90;;;;;;6386017;28;20267;-67
2022/11/17 07:24:38;;;;;;;1.20;1.20;;;3.10;99.90;;;;;;6385494;28;20322;-67
2022/11/17 07:27:44;;;;;;;1.27;1.27;;;3.10;99.90;;;;;;6385939;28;20272;-67
2022/11/17 07:30:49;;;;;;;1.20;1.10;;;3.10;99.90;;;;;;6385355;28;20302;-67
2022/11/17 07:33:54;;;;;;;1.20;1.17;;;3.10;99.90;;;;;;6385347;28;20295;-67
2022/11/17 07:36:59;;;;;;;1.83;1.20;;;3.10;99.90;;;;;;6386268;28;20261;-67
2022/11/17 07:40:05;;;;;;;1.37;1.37;;;3.10;99.90;;;;;;6385770;28;20296;-67
2022/11/17 07:43:12;;;;;;;1.67;1.43;;;3.10;99.90;;;;;;6385479;28;20267;-68
2022/11/17 07:46:17;;;;;;;3.57;1.80;;;3.10;99.90;;;;;;6386354;28;20268;-66
2022/11/17 07:49:22;;;;;;;1.40;1.40;;;3.10;99.90;;;;;;6385711;28;20299;-67
2022/11/17 07:52:27;;;;;;;1.30;1.30;;;3.10;99.90;;;;;;6387290;27;20287;-66
2022/11/17 07:55:31;;;;;;;1.20;1.20;;;3.10;99.90;;;;;;6390128;27;20296;-66
2022/11/17 07:58:39;;;;;;;1.20;1.20;;;3.20;99.90;;;;;;6390268;27;20303;-67
2022/11/17 08:01:44;;;;;;;1.57;1.57;;;3.20;99.90;;;;;;6390461;27;20295;-67
2022/11/17 08:04:49;;;;;;;1.70;1.60;;;3.30;99.90;;;;;;6390169;27;20487;-67
2022/11/17 08:07:59;;;;;;;1.60;1.50;;;3.30;99.90;;;;;;6390192;27;20267;-67
2022/11/17 08:11:04;;;;;;;1.30;1.30;;;3.30;99.90;;;;;;6390468;27;20580;-67
2022/11/17 08:14:13;;;;;;;5.30;1.30;;;3.30;99.90;;;;;;6390088;27;20296;-67
2022/11/17 08:17:18;;;;;;;1.30;1.30;;;3.30;99.90;;;;;;6389950;27;20458;-67
2022/11/17 08:20:24;;;;;;;2.30;1.40;;;3.30;99.90;;;;;;6389542;27;20299;-67
2022/11/17 08:23:29;;;;;;;1.30;1.30;;;3.20;99.90;;;;;;6389503;27;20289;-67
2022/11/17 08:26:33;;;;;;;1.40;1.30;;;3.30;99.90;;;;;;6390076;27;20454;-68
2022/11/17 08:29:40;;;;;;;1.37;1.30;;;3.30;99.90;;;;;;6389248;27;20292;-67
2022/11/17 08:32:48;;;;;;;1.30;1.30;;;3.40;99.90;;;;;;6390065;27;20288;-66
2022/11/17 08:35:57;;;;;;;1.20;1.20;;;3.40;99.90;;;;;;6388549;27;20277;-66
2022/11/17 08:39:02;;;;;;;1.13;1.13;;;3.40;99.90;;;;;;6388883;27;20473;-68
2022/11/17 08:42:07;;;;;;;1.07;1.07;;;3.40;99.90;;;;;;6389580;27;20267;-67
2022/11/17 08:45:14;;;;;;;1.30;1.30;;;3.40;99.90;;;;;;6389291;27;20309;-67
2022/11/17 08:48:19;;;;;;;1.30;1.20;;;3.50;99.90;;;;;;6388632;27;20309;-67
2022/11/17 08:51:26;;;;;;;1.20;1.20;;;3.40;99.90;;;;;;6389260;27;20566;-67
2022/11/17 08:54:30;;;;;;;1.20;1.20;;;3.30;99.90;;;;;;6388225;27;20292;-67
2022/11/17 08:57:37;;;;;;;1.37;1.10;;;3.30;99.90;;;;;;6388770;27;20272;-67
2022/11/17 09:00:45;;;;;;;2.97;1.37;;;3.30;99.90;;;;;;6388158;27;20299;-67
2022/11/17 09:03:51;;;;;;;1.33;1.33;;;3.20;99.90;;;;;;6387609;27;20288;-67
2022/11/17 09:06:56;;;;;;;1.50;1.40;;;3.30;99.90;;;;;;6388738;27;20266;-67
2022/11/17 09:10:00;;;;;;;2.93;2.83;;;3.30;99.90;;;;;;6388859;27;20295;-67
2022/11/17 09:13:05;;;;;;;1.90;1.90;;;3.20;99.90;;;;;;6388029;27;20280;-67
2022/11/17 09:16:14;;;;;;;3.77;2.50;;;3.30;99.90;;;;;;6388828;27;20261;-67
2022/11/17 09:19:19;;;;;;;2.00;2.00;;;3.40;99.90;;;;;;6388033;27;20295;-67
2022/11/17 09:22:24;;;;;;;1.93;1.93;;;3.50;99.90;;;;;;6388623;27;20271;-67
2022/11/17 09:25:30;;;;;;;1.63;1.53;;;3.50;99.90;;;;;;6387838;27;20289;-67
2022/11/17 09:28:34;;;;;;;1.40;1.40;;;3.50;99.90;;;;;;6387634;27;20468;-67
2022/11/17 09:31:41;;;;;;;1.50;1.50;;;3.50;99.90;;;;;;6388487;27;20395;-67
2022/11/17 09:34:46;;;;;;;1.57;1.47;;;3.50;99.90;;;;;;6387619;27;20289;-67
2022/11/17 09:37:51;;;;;;;1.67;1.53;;;3.40;99.90;;;;;;6388417;27;20268;-67
2022/11/17 09:40:57;;;;;;;2.67;2.57;;;3.40;99.90;;;;;;6387341;27;20265;-67
2022/11/17 09:44:18;;;;;;;2.10;2.10;;;3.40;99.90;;;;;;6387569;27;20298;-67
2022/11/17 09:47:33;;;;;;;2.30;1.90;;;3.40;99.90;;;;;;6388157;27;20270;-67
2022/11/17 09:50:40;;;;;;;2.23;1.40;;;3.50;99.90;;;;;;6387673;27;20293;-67
2022/11/17 09:53:49;;;;;;;1.37;1.37;;;3.40;99.90;;;;;;6387321;27;20311;-67
2022/11/17 09:56:55;;;;;;;1.73;1.40;;;3.50;99.90;;;;;;6388004;27;20265;-67
2022/11/17 10:00:13;;;;;;;2.27;1.23;;;3.40;99.90;;;;;;6387173;27;20291;-67
2022/11/17 10:03:21;;;;;;;1.30;1.20;;;3.50;99.90;;;;;;6387347;27;20299;-67
2022/11/17 10:06:28;;;;;;;1.77;1.40;;;3.60;99.90;;;;;;6387101;27;20272;-67
2022/11/17 10:09:38;;;;;;;2.10;2.10;;;3.50;99.90;;;;;;6386867;27;20449;-67
2022/11/17 10:12:51;;;;;;;2.20;1.40;;;3.50;99.90;;;;;;6387483;27;20293;-67
2022/11/17 10:16:00;;;;;;;1.20;1.20;;;3.60;99.90;;;;;;6385632;27;20279;-67
2022/11/17 10:19:15;;;;;;;1.30;1.10;;;3.60;99.90;;;;;;6386413;27;20296;-67
2022/11/17 10:22:32;;;;;;;1.40;1.40;;;3.60;99.90;;;;;;6386742;27;20292;-67
2022/11/17 10:25:39;;;;;;;1.70;1.70;;;3.60;99.90;;;;;;6386604;27;20300;-66
2022/11/17 10:28:44;;;;;;;2.73;2.70;;;3.70;99.90;;;;;;6386784;27;20297;-67
2022/11/17 10:31:49;;;;;;;1.60;1.60;;;3.80;99.90;;;;;;6386695;27;20285;-67
2022/11/17 10:34:56;;;;;;;2.07;1.97;;;3.70;99.90;;;;;;6386669;27;20603;-66
2022/11/17 10:38:04;;;;;;;3.20;3.20;;;3.80;99.90;;;;;;6386227;27;20396;-66
2022/11/17 10:41:14;;;;;;;2.00;2.00;;;3.90;99.90;;;;;;6386693;27;20261;-66
2022/11/17 10:44:22;;;;;;;1.70;1.30;;;3.90;99.90;;;;;;6385626;27;20288;-67
2022/11/17 10:47:31;;;;;;;1.80;1.80;;;3.80;99.90;;;;;;6386448;27;20266;-67
2022/11/17 10:50:37;;;;;;;1.30;1.20;;;3.70;99.90;;;;;;6385738;27;20304;-66
2022/11/17 10:53:43;;;;;;;1.57;1.57;;;3.70;99.90;;;;;;6385990;27;20298;-67
2022/11/17 10:56:52;;;;;;;1.63;1.63;;;3.70;99.90;;;;;;6386262;27;20462;-67
2022/11/17 10:59:58;;;;;;;2.00;2.00;;;3.70;99.90;;;;;;6385580;27;20293;-67
2022/11/17 11:03:16;;;;;;;4.00;3.80;;;3.70;99.90;;;;;;6385425;27;20278;-67
2022/11/17 11:06:28;;;;;;;1.70;1.60;;;3.70;99.90;;;;;;6386711;28;20545;-67
2022/11/17 11:09:33;;;;;;;1.27;1.10;;;3.80;99.90;;;;;;6385629;28;20591;-67
2022/11/17 11:12:45;;;;;;;1.13;1.13;;;3.80;99.90;;;;;;6385851;28;20287;-67
2022/11/17 11:15:50;;;;;;;1.10;1.10;;;3.80;99.90;;;;;;6385765;28;20292;-67
2022/11/17 11:18:55;;;;;;;1.67;1.57;;;3.80;99.90;;;;;;6385680;28;20621;-67
2022/11/17 11:22:36;;;;;;;1.57;1.43;;;3.80;99.90;;;;;;6386219;28;20265;-67
2022/11/17 11:25:48;;;;;;;1.57;1.57;;;3.80;99.90;;;;;;6386437;27;20480;-67
2022/11/17 11:29:07;;;;;;;1.53;1.53;;;3.90;99.90;;;;;;6372464;27;20477;-66
2022/11/17 11:32:24;;;;;;;2.43;1.20;;;3.80;99.90;;;;;;6391131;27;22137;-67
2022/11/17 11:36:00;;;;;;;1.30;1.30;;;3.90;99.90;;;;;;6390657;27;20586;-67
2022/11/17 11:39:17;;;;;;;1.20;1.20;;;4.00;99.90;;;;;;6390560;27;20314;-67
2022/11/17 11:42:42;;;;;;;2.70;2.60;;;4.00;99.90;;;;;;6390843;27;20268;-67
2022/11/17 11:45:55;;;;;;;1.40;1.40;;;4.00;99.90;;;;;;6371834;27;20302;-66
2022/11/17 11:49:11;;;;;;;1.50;1.40;;;4.00;99.90;;;;;;6389818;27;20295;-67
2022/11/17 11:52:20;;;;;;;1.53;1.53;;;4.10;99.90;;;;;;6390849;27;20265;-67
2022/11/17 11:55:31;;;;;;;1.23;1.23;;;4.10;99.90;;;;;;6372084;27;20292;-67
2022/11/17 11:58:40;;;;;;;2.50;1.60;;;4.00;99.90;;;;;;6390296;27;20297;-67
2022/11/17 12:01:51;;;;;;;1.20;1.20;;;4.10;99.90;;;;;;6390272;27;20324;-67
2022/11/17 12:05:05;;;;;;;1.80;1.70;;;4.20;99.90;;;;;;6390055;27;20334;-67
2022/11/17 12:08:20;;;;;;;1.70;1.70;;;4.10;99.90;;;;;;6389808;27;20298;-68
2022/11/17 12:15:31;;;;;;;1.40;1.40;;;4.20;99.90;;;;;;6389469;27;20587;-67
2022/11/17 12:18:36;;;;;;;1.57;1.57;;;4.20;99.90;;;;;;6390041;27;20289;-67
2022/11/17 12:21:43;;;;;;;1.40;1.40;;;4.20;99.90;;;;;;6389850;27;20273;-66
2022/11/17 12:24:48;;;;;;;1.23;1.23;;;4.30;99.90;;;;;;6389438;27;20293;-66
2022/11/17 12:27:54;;;;;;;2.10;1.40;;;4.30;99.90;;;;;;6389134;27;20290;-67
2022/11/17 12:31:01;;;;;;;1.13;1.13;;;4.30;99.90;;;;;;6389100;27;20262;-67
2022/11/17 12:34:24;;;;;;;1.40;1.40;;;4.30;99.90;;;;;;6388811;27;20294;-67
2022/11/17 12:37:29;;;;;;;1.40;1.30;;;4.40;99.90;;;;;;6388954;27;20270;-68
2022/11/17 12:40:45;;;;;;;1.20;1.20;;;4.30;99.90;;;;;;6389246;27;20301;-66
2022/11/17 12:43:51;;;;;;;1.40;1.40;;;4.40;99.90;;;;;;6388923;27;20598;-67
2022/11/17 12:47:07;;;;;;;1.10;1.10;;;4.40;99.90;;;;;;6389097;27;20267;-67
2022/11/17 12:50:45;;;;;;;1.17;1.17;;;4.30;99.90;;;;;;6388939;27;20289;-68
2022/11/17 12:54:02;;;;;;;1.10;1.10;;;4.30;99.90;;;;;;6388881;27;20605;-66
2022/11/17 12:57:09;;;;;;;1.10;1.10;;;4.20;99.90;;;;;;6389224;27;20269;-67
2022/11/17 13:00:19;;;;;;;1.10;1.10;;;4.30;99.90;;;;;;6388503;27;20334;-66
2022/11/17 13:03:38;;;;;;;1.10;1.10;;;4.20;99.90;;;;;;6388014;27;20294;-66
2022/11/17 13:06:59;;;;;;;6.50;4.23;;;4.30;99.90;;;;;;6388475;27;20266;-67
2022/11/17 13:10:06;;;;;;;4.23;3.37;;;4.30;99.90;;;;;;6388280;27;20293;-67
2022/11/17 13:13:13;;;;;;;1.43;1.43;;;4.30;99.90;;;;;;6387959;27;20259;-67
2022/11/17 13:16:21;;;;;;;2.10;1.47;;;4.40;99.90;;;;;;6388480;27;20388;-67
2022/11/17 13:19:34;;;;;;;1.73;1.60;;;4.40;99.90;;;;;;6388388;27;20307;-68
2022/11/17 13:22:39;;;;;;;1.43;1.43;;;4.40;99.90;;;;;;6388517;27;20293;-67
2022/11/17 13:25:45;;;;;;;1.40;1.40;;;4.40;99.90;;;;;;6387774;27;20298;-66
2022/11/17 13:29:04;;;;;;;1.27;1.27;;;4.30;99.90;;;;;;6387865;27;20487;-66
2022/11/17 13:32:19;;;;;;;1.23;1.23;;;4.20;99.90;;;;;;6370736;27;20279;-67
2022/11/17 13:35:27;;;;;;;1.20;1.20;;;4.30;99.90;;;;;;6387974;27;20297;-67
2022/11/17 13:38:32;;;;;;;1.30;1.30;;;4.40;99.90;;;;;;6369623;27;20294;-66
2022/11/17 13:41:38;;;;;;;1.30;1.30;;;4.40;99.90;;;;;;6387723;27;20270;-67
2022/11/17 13:44:43;;;;;;;1.20;1.20;;;4.30;99.90;;;;;;6387532;27;20298;-67
2022/11/17 13:47:52;;;;;;;1.20;1.20;;;4.30;99.90;;;;;;6388157;27;20458;-67
2022/11/17 13:50:57;;;;;;;1.27;1.27;;;4.30;99.90;;;;;;6367817;27;20278;-67
2022/11/17 13:54:04;;;;;;;1.30;1.30;;;4.10;99.90;;;;;;6386157;27;20311;-67
2022/11/17 13:57:19;;;;;;;1.50;1.40;;;4.10;99.90;;;;;;6387968;27;20266;-67
2022/11/17 14:00:25;;;;;;;1.67;1.67;;;4.20;99.90;;;;;;6386557;27;20575;-67
2022/11/17 14:03:37;;;;;;;2.23;1.60;;;4.10;99.90;;;;;;6386948;27;20281;-67
2022/11/17 14:07:01;;;;;;;1.70;1.70;;;4.10;99.90;;;;;;6387674;27;20271;-67
2022/11/17 14:10:13;;;;;;;1.67;1.60;;;4.10;99.90;;;;;;6386781;27;20312;-66
2022/11/17 14:13:27;;;;;;;3.27;1.70;;;4.20;99.90;;;;;;6386561;27;20326;-67
2022/11/17 14:16:37;;;;;;;2.10;2.10;;;4.10;99.90;;;;;;6387429;27;20294;-66
2022/11/17 14:19:44;;;;;;;2.20;2.10;;;4.10;99.90;;;;;;6386521;27;20299;-67
2022/11/17 14:23:02;;;;;;;2.93;2.13;;;4.10;99.90;;;;;;6387489;27;20266;-67
2022/11/17 14:26:20;;;;;;;2.63;2.53;;;4.10;99.90;;;;;;6386086;27;20274;-67
2022/11/17 14:29:26;;;;;;;2.27;2.27;;;4.10;99.90;;;;;;6386207;27;20594;-67
2022/11/17 14:32:33;;;;;;;3.50;2.87;;;4.10;99.90;;;;;;6387023;27;20262;-67
2022/11/17 14:35:39;;;;;;;6.77;5.43;;;4.00;99.90;;;;;;6386507;27;20298;-67
2022/11/17 14:38:45;;;;;;;3.60;3.50;;;4.00;99.90;;;;;;6386341;27;20304;-67
2022/11/17 14:41:51;;;;;;;8.83;5.93;;;3.90;99.90;;;;;;6386355;27;20263;-67
2022/11/17 14:44:56;;;;;;;10.07;6.17;;;3.90;99.90;;;;;;6386304;27;20293;-67
2022/11/17 14:48:01;;;;;;;3.43;3.20;;;3.90;99.90;;;;;;6385671;27;20262;-67
2022/11/17 14:51:08;;;;;;;2.60;2.50;;;3.80;99.90;;;;;;6386625;27;20454;-67
2022/11/17 14:54:12;;;;;;;1.90;1.90;;;3.80;99.90;;;;;;6367847;27;20299;-68
2022/11/17 14:57:17;;;;;;;2.00;1.90;;;3.80;99.90;;;;;;6386019;27;20266;-67
2022/11/17 15:00:22;;;;;;;1.70;1.70;;;3.70;99.90;;;;;;6385968;27;20302;-68
2022/11/17 15:03:28;;;;;;;2.17;1.73;;;3.80;99.90;;;;;;6385725;27;20282;-67
2022/11/17 15:06:34;;;;;;;1.33;1.33;;;3.70;99.90;;;;;;6386067;27;20266;-67
2022/11/17 15:09:39;;;;;;;1.30;1.30;;;3.70;99.90;;;;;;6385825;28;20293;-67
2022/11/17 15:12:43;;;;;;;1.20;1.20;;;3.50;99.90;;;;;;6385979;28;20443;-67
2022/11/17 15:15:48;;;;;;;1.63;1.50;;;3.50;99.90;;;;;;6386418;28;20487;-67
2022/11/17 15:18:53;;;;;;;1.97;1.97;;;3.50;99.90;;;;;;6385667;28;20628;-67
2022/11/17 15:21:59;;;;;;;1.40;1.30;;;3.50;99.90;;;;;;6385828;28;20447;-67
2022/11/17 15:25:05;;;;;;;1.30;1.30;;;3.50;99.90;;;;;;6385701;28;20305;-66
2022/11/17 15:28:14;;;;;;;1.30;1.30;;;3.40;99.90;;;;;;6385292;28;20287;-66
2022/11/17 15:31:26;;;;;;;1.20;1.20;;;3.50;99.90;;;;;;6386131;28;20281;-67
2022/11/17 15:34:31;;;;;;;1.50;1.50;;;3.40;99.90;;;;;;6385631;28;20300;-67
2022/11/17 15:37:37;;;;;;;1.50;1.50;;;3.40;99.90;;;;;;6386036;28;20261;-67
2022/11/17 15:40:42;;;;;;;1.17;1.17;;;3.40;99.90;;;;;;6385479;28;20581;-67
2022/11/17 15:43:47;;;;;;;1.20;1.20;;;3.50;99.90;;;;;;6385232;28;20297;-67
2022/11/17 15:46:52;;;;;;;1.60;1.43;;;3.40;99.90;;;;;;6386028;28;20274;-66
2022/11/17 15:49:57;;;;;;;1.20;1.20;;;3.40;99.90;;;;;;6385104;28;20300;-66
2022/11/17 15:53:03;;;;;;;1.10;1.10;;;3.40;99.90;;;;;;6385335;28;20262;-66
2022/11/17 15:56:13;;;;;;;1.13;1.13;;;3.30;99.90;;;;;;6367841;28;20387;-67
2022/11/17 15:59:18;;;;;;;1.10;1.10;;;3.20;99.90;;;;;;6384864;28;20321;-67
2022/11/17 16:02:23;;;;;;;1.00;1.00;;;3.20;99.90;;;;;;6385771;28;20298;-67
2022/11/17 16:05:29;;;;;;;1.00;1.00;;;3.30;99.90;;;;;;6384990;28;20289;-67
2022/11/17 16:08:35;;;;;;;1.10;1.10;;;3.20;99.90;;;;;;6366805;28;20586;-67
2022/11/17 16:11:41;;;;;;;1.13;1.13;;;3.10;99.90;;;;;;6385031;27;20256;-67
2022/11/17 16:14:45;;;;;;;0.97;0.97;;;3.00;99.90;;;;;;6388544;27;20307;-67
2022/11/17 16:17:50;;;;;;;1.00;1.00;;;3.10;99.90;;;;;;6390271;27;20285;-68
2022/11/17 16:20:55;;;;;;;1.90;0.90;;;3.00;99.90;;;;;;6389009;27;20565;-68
2022/11/17 16:24:11;;;;;;;1.13;1.13;;;3.10;99.90;;;;;;6389741;27;20293;-67
2022/11/17 16:27:16;;;;;;;3.60;3.40;;;3.10;99.90;;;;;;6390388;27;20275;-67
2022/11/17 16:30:21;;;;;;;1.67;1.67;;;3.00;99.90;;;;;;6389318;27;20292;-67
2022/11/17 16:33:26;;;;;;;1.53;1.53;;;3.00;99.90;;;;;;6388934;27;20292;-67
2022/11/17 16:36:34;;;;;;;1.40;1.40;;;3.00;99.90;;;;;;6389372;27;20289;-67
2022/11/17 16:39:41;;;;;;;1.43;1.43;;;3.00;99.90;;;;;;6388569;27;20306;-68
2022/11/17 16:42:46;;;;;;;1.30;1.30;;;3.00;99.90;;;;;;6389330;27;20271;-68
2022/11/17 16:45:51;;;;;;;1.87;1.37;;;3.00;99.90;;;;;;6388283;27;20298;-68
2022/11/17 16:48:57;;;;;;;1.00;0.97;;;3.10;99.90;;;;;;6388469;27;20300;-67
2022/11/17 16:52:01;;;;;;;2.10;1.00;;;3.10;99.90;;;;;;6389495;27;20335;-68
2022/11/17 16:55:09;;;;;;;2.50;2.50;;;2.90;99.90;;;;;;6388874;27;20296;-67
2022/11/17 16:58:13;;;;;;;1.90;1.80;;;2.90;99.90;;;;;;6388854;27;20476;-67
2022/11/17 17:01:21;;;;;;;1.00;1.00;;;2.90;99.90;;;;;;6388870;27;20369;-67
2022/11/17 17:04:30;;;;;;;1.50;1.50;;;2.80;99.90;;;;;;6388361;27;20309;-67
2022/11/17 17:07:35;;;;;;;1.10;1.10;;;2.80;99.90;;;;;;6389279;27;20265;-67